Main page
Satellite images 10-day forecastsClimateMarine weather Cyclones Lightning AirportsFAQ Newsletter About
Weather : Europe Africa North America South America Asia Australia-Oceania Others
Languages Contact

London-Southend, England

London Southend Airport

latitude: 51-34N, longitude: 000-42E, elevation: 15 m


METAR: EGMC 211120Z 03007KT 350V070 CAVOK 15/05 Q1034
TAF: EGMC 210807Z 2109/2118 02008KT CAVOK BECMG 2112/2115 09011KT

Time: 12:34 (11:34 UTC)

Current weather observation

The report was made 14 minutes ago, at 11:20 UTC
Wind 7 kt from the North/Northeast, varying between North and East/Northeast
Temperature 15°C
Humidity 51%
Pressure 1034 hPa
Visibility 10 km or more
no clouds below 1500 m and no cumulonimbus

Change units

Forecast

The report was made 3 hours and 27 minutes ago, at 08:07 UTC
Forecast valid from 21 at 09 UTC to 21 at 18 UTC
Wind 8 kt from the North/Northeast
Visibility 10 km or more
no clouds below 1500 m and no cumulonimbus
Becoming
from 21 at 12 UTC to 21 at 15 UTC
Wind 11 kt from the East
The information on this site is subject to a disclaimer
Weather : Europe Africa North America South America Asia Australia-Oceania Others
Satellite images 10-day forecastsClimateMarine weather Cyclones Lightning AirportsFAQ Languages Contact Newsletter About